sensor_id;sensor_type;location;lat;lon;timestamp;temperature;humidity
490;DHT22;231;48.120;11.576;2022-09-09T00:02:05;18.10;25.40
490;DHT22;231;48.120;11.576;2022-09-09T00:06:03;18.10;25.50
490;DHT22;231;48.120;11.576;2022-09-09T00:18:56;18.10;26.10
490;DHT22;231;48.120;11.576;2022-09-09T00:21:30;18.10;25.80
490;DHT22;231;48.120;11.576;2022-09-09T00:24:15;18.20;25.80
490;DHT22;231;48.120;11.576;2022-09-09T00:26:51;18.20;25.80
490;DHT22;231;48.120;11.576;2022-09-09T00:29:37;18.20;25.70
490;DHT22;231;48.120;11.576;2022-09-09T00:32:13;18.30;25.70
490;DHT22;231;48.120;11.576;2022-09-09T00:34:46;18.30;25.40
490;DHT22;231;48.120;11.576;2022-09-09T00:37:50;18.30;25.40
490;DHT22;231;48.120;11.576;2022-09-09T00:41:20;18.20;25.50
490;DHT22;231;48.120;11.576;2022-09-09T00:43:56;18.30;25.60
490;DHT22;231;48.120;11.576;2022-09-09T00:49:49;18.20;25.60
490;DHT22;231;48.120;11.576;2022-09-09T00:52:30;18.20;25.80
490;DHT22;231;48.120;11.576;2022-09-09T00:57:58;18.30;25.90
490;DHT22;231;48.120;11.576;2022-09-09T01:00:27;18.30;25.80
490;DHT22;231;48.120;11.576;2022-09-09T01:03:33;18.40;25.60
490;DHT22;231;48.120;11.576;2022-09-09T01:06:15;18.30;25.50
490;DHT22;231;48.120;11.576;2022-09-09T01:09:11;18.30;25.50
490;DHT22;231;48.120;11.576;2022-09-09T01:11:55;18.30;25.70
490;DHT22;231;48.120;11.576;2022-09-09T01:14:42;18.30;25.50
490;DHT22;231;48.120;11.576;2022-09-09T01:17:17;18.30;25.70
490;DHT22;231;48.120;11.576;2022-09-09T01:20:03;18.30;25.60
490;DHT22;231;48.120;11.576;2022-09-09T01:22:43;18.30;25.70
490;DHT22;231;48.120;11.576;2022-09-09T01:25:28;18.20;25.30
490;DHT22;231;48.120;11.576;2022-09-09T01:27:59;18.20;25.10
490;DHT22;231;48.120;11.576;2022-09-09T01:33:17;18.20;24.80
490;DHT22;231;48.120;11.576;2022-09-09T01:35:50;18.30;24.70
490;DHT22;231;48.120;11.576;2022-09-09T01:38:20;18.30;24.40
490;DHT22;231;48.120;11.576;2022-09-09T01:40:48;18.40;24.20
490;DHT22;231;48.120;11.576;2022-09-09T01:43:20;18.40;23.90
490;DHT22;231;48.120;11.576;2022-09-09T01:45:49;18.40;23.90
490;DHT22;231;48.120;11.576;2022-09-09T01:48:18;18.40;23.80
490;DHT22;231;48.120;11.576;2022-09-09T01:50:45;18.30;23.80
490;DHT22;231;48.120;11.576;2022-09-09T01:53:13;18.30;24.00
490;DHT22;231;48.120;11.576;2022-09-09T01:55:47;18.20;24.30
490;DHT22;231;48.120;11.576;2022-09-09T01:58:25;18.10;24.80
490;DHT22;231;48.120;11.576;2022-09-09T02:01:00;18.10;25.30
490;DHT22;231;48.120;11.576;2022-09-09T02:03:32;18.00;25.40
490;DHT22;231;48.120;11.576;2022-09-09T02:06:05;18.10;25.80
490;DHT22;231;48.120;11.576;2022-09-09T02:08:40;18.10;25.40
490;DHT22;231;48.120;11.576;2022-09-09T02:11:13;18.10;25.60
490;DHT22;231;48.120;11.576;2022-09-09T02:13:44;18.10;25.70
490;DHT22;231;48.120;11.576;2022-09-09T02:16:15;18.20;25.80
490;DHT22;231;48.120;11.576;2022-09-09T02:18:48;18.10;25.70
490;DHT22;231;48.120;11.576;2022-09-09T02:21:17;18.00;25.50
490;DHT22;231;48.120;11.576;2022-09-09T02:23:47;18.00;26.30
490;DHT22;231;48.120;11.576;2022-09-09T02:26:15;18.00;26.10
490;DHT22;231;48.120;11.576;2022-09-09T02:28:49;18.00;26.10
490;DHT22;231;48.120;11.576;2022-09-09T02:31:19;17.90;26.30
490;DHT22;231;48.120;11.576;2022-09-09T02:33:51;18.00;26.30
490;DHT22;231;48.120;11.576;2022-09-09T02:36:20;18.00;26.20
490;DHT22;231;48.120;11.576;2022-09-09T02:38:50;18.00;26.40
490;DHT22;231;48.120;11.576;2022-09-09T02:41:21;18.00;26.30
490;DHT22;231;48.120;11.576;2022-09-09T02:43:51;18.00;26.60
490;DHT22;231;48.120;11.576;2022-09-09T02:46:27;18.00;26.70
490;DHT22;231;48.120;11.576;2022-09-09T02:49:01;18.00;26.60
490;DHT22;231;48.120;11.576;2022-09-09T02:51:37;18.10;26.80
490;DHT22;231;48.120;11.576;2022-09-09T02:54:10;18.00;26.60
490;DHT22;231;48.120;11.576;2022-09-09T02:56:47;18.00;26.60
490;DHT22;231;48.120;11.576;2022-09-09T02:59:21;18.10;26.40
490;DHT22;231;48.120;11.576;2022-09-09T03:01:49;18.10;26.60
490;DHT22;231;48.120;11.576;2022-09-09T03:04:16;18.10;26.50
490;DHT22;231;48.120;11.576;2022-09-09T03:06:43;18.00;26.40
490;DHT22;231;48.120;11.576;2022-09-09T03:09:10;18.00;26.60
490;DHT22;231;48.120;11.576;2022-09-09T03:11:37;18.00;26.70
490;DHT22;231;48.120;11.576;2022-09-09T03:14:07;18.00;26.80
490;DHT22;231;48.120;11.576;2022-09-09T03:17:06;18.00;27.10
490;DHT22;231;48.120;11.576;2022-09-09T03:19:59;17.90;27.20
490;DHT22;231;48.120;11.576;2022-09-09T03:22:37;17.80;27.60
490;DHT22;231;48.120;11.576;2022-09-09T03:28:27;17.80;28.00
490;DHT22;231;48.120;11.576;2022-09-09T03:30:59;17.80;28.10
490;DHT22;231;48.120;11.576;2022-09-09T03:33:28;17.80;28.20
490;DHT22;231;48.120;11.576;2022-09-09T03:35:55;17.80;28.20
490;DHT22;231;48.120;11.576;2022-09-09T03:38:22;17.80;28.40
490;DHT22;231;48.120;11.576;2022-09-09T03:41:21;17.80;28.40
490;DHT22;231;48.120;11.576;2022-09-09T03:46:52;17.80;28.30
490;DHT22;231;48.120;11.576;2022-09-09T03:49:23;17.70;28.60
490;DHT22;231;48.120;11.576;2022-09-09T03:51:53;17.70;28.60
490;DHT22;231;48.120;11.576;2022-09-09T03:54:20;17.70;29.00
490;DHT22;231;48.120;11.576;2022-09-09T03:56:47;17.70;28.80
490;DHT22;231;48.120;11.576;2022-09-09T03:59:14;17.80;28.60
490;DHT22;231;48.120;11.576;2022-09-09T04:01:41;17.80;28.50
490;DHT22;231;48.120;11.576;2022-09-09T04:04:10;17.80;28.10
490;DHT22;231;48.120;11.576;2022-09-09T04:06:56;17.80;28.20
490;DHT22;231;48.120;11.576;2022-09-09T04:09:28;17.70;28.30
490;DHT22;231;48.120;11.576;2022-09-09T04:12:04;17.70;28.80
490;DHT22;231;48.120;11.576;2022-09-09T04:14:34;17.70;29.20
490;DHT22;231;48.120;11.576;2022-09-09T04:17:01;17.70;28.80
490;DHT22;231;48.120;11.576;2022-09-09T04:19:31;17.80;28.60
490;DHT22;231;48.120;11.576;2022-09-09T04:22:00;17.80;28.50
490;DHT22;231;48.120;11.576;2022-09-09T04:24:27;17.80;28.40
490;DHT22;231;48.120;11.576;2022-09-09T04:26:54;17.80;28.60
490;DHT22;231;48.120;11.576;2022-09-09T04:29:27;17.80;28.50
490;DHT22;231;48.120;11.576;2022-09-09T04:31:55;17.80;28.50
490;DHT22;231;48.120;11.576;2022-09-09T04:34:23;17.70;28.60
490;DHT22;231;48.120;11.576;2022-09-09T04:36:52;17.60;28.80
490;DHT22;231;48.120;11.576;2022-09-09T04:42:21;17.70;29.10
490;DHT22;231;48.120;11.576;2022-09-09T04:44:50;17.70;29.20
490;DHT22;231;48.120;11.576;2022-09-09T04:47:34;17.70;29.10
490;DHT22;231;48.120;11.576;2022-09-09T04:50:01;17.70;29.00
490;DHT22;231;48.120;11.576;2022-09-09T04:52:28;17.60;29.00
490;DHT22;231;48.120;11.576;2022-09-09T04:54:57;17.60;29.40
490;DHT22;231;48.120;11.576;2022-09-09T04:57:30;17.60;29.70
490;DHT22;231;48.120;11.576;2022-09-09T04:59:59;17.60;29.80
490;DHT22;231;48.120;11.576;2022-09-09T05:02:28;17.60;29.90
490;DHT22;231;48.120;11.576;2022-09-09T05:04:55;17.60;29.60
490;DHT22;231;48.120;11.576;2022-09-09T05:07:23;17.60;29.40
490;DHT22;231;48.120;11.576;2022-09-09T05:09:51;17.60;29.40
490;DHT22;231;48.120;11.576;2022-09-09T05:12:55;17.60;29.40
490;DHT22;231;48.120;11.576;2022-09-09T05:15:29;17.50;29.30
490;DHT22;231;48.120;11.576;2022-09-09T05:18:03;17.50;29.80
490;DHT22;231;48.120;11.576;2022-09-09T05:20:30;17.50;29.80
490;DHT22;231;48.120;11.576;2022-09-09T05:22:59;17.60;29.70
490;DHT22;231;48.120;11.576;2022-09-09T05:32:38;17.50;29.80
490;DHT22;231;48.120;11.576;2022-09-09T05:38:14;17.50;29.70
490;DHT22;231;48.120;11.576;2022-09-09T05:38:54;17.50;29.70
490;DHT22;231;48.120;11.576;2022-09-09T05:45:00;17.50;29.40
490;DHT22;231;48.120;11.576;2022-09-09T05:47:51;17.50;29.80
490;DHT22;231;48.120;11.576;2022-09-09T05:50:19;17.50;30.00
490;DHT22;231;48.120;11.576;2022-09-09T05:52:46;17.60;29.90
490;DHT22;231;48.120;11.576;2022-09-09T05:55:14;17.60;29.30
490;DHT22;231;48.120;11.576;2022-09-09T05:57:41;17.70;29.10
490;DHT22;231;48.120;11.576;2022-09-09T06:00:09;17.60;28.60
490;DHT22;231;48.120;11.576;2022-09-09T06:02:37;17.60;28.40
490;DHT22;231;48.120;11.576;2022-09-09T06:05:06;17.50;28.90
490;DHT22;231;48.120;11.576;2022-09-09T06:07:34;17.60;28.80
490;DHT22;231;48.120;11.576;2022-09-09T06:10:01;17.60;28.60
490;DHT22;231;48.120;11.576;2022-09-09T06:12:28;17.70;28.20
490;DHT22;231;48.120;11.576;2022-09-09T06:14:55;17.80;28.20
490;DHT22;231;48.120;11.576;2022-09-09T06:17:22;17.80;28.00
490;DHT22;231;48.120;11.576;2022-09-09T06:19:49;17.90;28.10
490;DHT22;231;48.120;11.576;2022-09-09T06:25:40;17.90;27.30
490;DHT22;231;48.120;11.576;2022-09-09T06:28:07;17.90;27.80
490;DHT22;231;48.120;11.576;2022-09-09T06:30:36;17.90;27.70
490;DHT22;231;48.120;11.576;2022-09-09T06:33:03;17.80;27.50
490;DHT22;231;48.120;11.576;2022-09-09T06:35:39;17.80;27.70
490;DHT22;231;48.120;11.576;2022-09-09T06:38:07;17.80;28.20
490;DHT22;231;48.120;11.576;2022-09-09T06:40:34;17.90;28.10
490;DHT22;231;48.120;11.576;2022-09-09T06:43:03;17.90;27.80
490;DHT22;231;48.120;11.576;2022-09-09T06:45:36;18.00;27.40
490;DHT22;231;48.120;11.576;2022-09-09T06:48:07;18.00;27.20
490;DHT22;231;48.120;11.576;2022-09-09T06:50:35;18.00;27.50
490;DHT22;231;48.120;11.576;2022-09-09T06:53:02;18.10;27.40
490;DHT22;231;48.120;11.576;2022-09-09T06:55:29;18.20;27.10
490;DHT22;231;48.120;11.576;2022-09-09T06:57:59;18.20;26.40
490;DHT22;231;48.120;11.576;2022-09-09T07:00:30;18.10;26.90
490;DHT22;231;48.120;11.576;2022-09-09T07:02:57;18.00;27.00
490;DHT22;231;48.120;11.576;2022-09-09T07:05:24;17.90;27.80
490;DHT22;231;48.120;11.576;2022-09-09T07:07:52;17.80;28.30
490;DHT22;231;48.120;11.576;2022-09-09T07:10:19;17.80;28.30
490;DHT22;231;48.120;11.576;2022-09-09T07:12:50;17.90;28.70
490;DHT22;231;48.120;11.576;2022-09-09T07:15:19;18.10;28.10
490;DHT22;231;48.120;11.576;2022-09-09T07:17:50;18.00;27.90
490;DHT22;231;48.120;11.576;2022-09-09T07:20:17;18.10;27.70
490;DHT22;231;48.120;11.576;2022-09-09T07:22:45;18.10;27.90
490;DHT22;231;48.120;11.576;2022-09-09T07:25:15;18.20;28.60
490;DHT22;231;48.120;11.576;2022-09-09T07:27:43;18.10;29.80
490;DHT22;231;48.120;11.576;2022-09-09T07:30:11;18.10;30.50
490;DHT22;231;48.120;11.576;2022-09-09T07:32:40;18.00;30.60
490;DHT22;231;48.120;11.576;2022-09-09T07:35:09;18.00;30.90
490;DHT22;231;48.120;11.576;2022-09-09T07:37:36;18.10;31.90
490;DHT22;231;48.120;11.576;2022-09-09T07:40:07;18.10;31.60
490;DHT22;231;48.120;11.576;2022-09-09T07:42:34;18.20;30.30
490;DHT22;231;48.120;11.576;2022-09-09T07:45:03;18.20;29.70
490;DHT22;231;48.120;11.576;2022-09-09T07:47:31;18.30;30.40
490;DHT22;231;48.120;11.576;2022-09-09T07:49:58;18.40;29.60
490;DHT22;231;48.120;11.576;2022-09-09T07:52:27;18.60;28.90
490;DHT22;231;48.120;11.576;2022-09-09T07:54:54;18.70;28.50
490;DHT22;231;48.120;11.576;2022-09-09T07:57:22;18.90;28.10
490;DHT22;231;48.120;11.576;2022-09-09T07:59:49;19.00;27.60
490;DHT22;231;48.120;11.576;2022-09-09T08:02:16;19.10;26.90
490;DHT22;231;48.120;11.576;2022-09-09T08:04:43;19.20;26.10
490;DHT22;231;48.120;11.576;2022-09-09T08:07:10;19.30;25.90
490;DHT22;231;48.120;11.576;2022-09-09T08:09:38;19.30;25.60
490;DHT22;231;48.120;11.576;2022-09-09T08:12:12;19.40;25.30
490;DHT22;231;48.120;11.576;2022-09-09T08:14:39;19.50;24.40
490;DHT22;231;48.120;11.576;2022-09-09T08:17:06;19.60;24.00
490;DHT22;231;48.120;11.576;2022-09-09T08:19:34;19.70;23.90
490;DHT22;231;48.120;11.576;2022-09-09T08:22:01;19.80;23.80
490;DHT22;231;48.120;11.576;2022-09-09T08:24:29;19.70;23.80
490;DHT22;231;48.120;11.576;2022-09-09T08:26:58;19.80;23.80
490;DHT22;231;48.120;11.576;2022-09-09T08:29:29;19.90;23.50
490;DHT22;231;48.120;11.576;2022-09-09T08:32:04;19.90;23.50
490;DHT22;231;48.120;11.576;2022-09-09T08:34:31;19.80;23.40
490;DHT22;231;48.120;11.576;2022-09-09T08:44:02;20.20;22.80
490;DHT22;231;48.120;11.576;2022-09-09T08:46:36;20.10;23.40
490;DHT22;231;48.120;11.576;2022-09-09T08:49:32;20.10;22.60
490;DHT22;231;48.120;11.576;2022-09-09T08:52:16;20.10;22.60
490;DHT22;231;48.120;11.576;2022-09-09T08:58:14;19.90;23.70
490;DHT22;231;48.120;11.576;2022-09-09T09:01:02;19.90;24.20
490;DHT22;231;48.120;11.576;2022-09-09T09:04:03;19.80;24.60
490;DHT22;231;48.120;11.576;2022-09-09T09:06:53;19.80;25.50
490;DHT22;231;48.120;11.576;2022-09-09T09:27:10;19.70;25.00
490;DHT22;231;48.120;11.576;2022-09-09T09:29:40;19.50;24.40
490;DHT22;231;48.120;11.576;2022-09-09T09:32:13;19.60;24.80
490;DHT22;231;48.120;11.576;2022-09-09T09:34:42;19.70;23.70
490;DHT22;231;48.120;11.576;2022-09-09T09:37:28;19.80;23.70
490;DHT22;231;48.120;11.576;2022-09-09T09:40:08;20.00;22.70
490;DHT22;231;48.120;11.576;2022-09-09T09:42:48;20.10;22.90
490;DHT22;231;48.120;11.576;2022-09-09T09:45:26;20.10;23.00
490;DHT22;231;48.120;11.576;2022-09-09T09:47:59;20.10;23.00
490;DHT22;231;48.120;11.576;2022-09-09T09:50:28;20.20;23.40
490;DHT22;231;48.120;11.576;2022-09-09T09:52:56;20.20;23.20
490;DHT22;231;48.120;11.576;2022-09-09T09:55:25;20.30;23.60
490;DHT22;231;48.120;11.576;2022-09-09T09:58:01;20.40;23.60
490;DHT22;231;48.120;11.576;2022-09-09T10:00:29;20.40;23.00
490;DHT22;231;48.120;11.576;2022-09-09T10:02:59;20.30;22.50
490;DHT22;231;48.120;11.576;2022-09-09T10:05:28;20.20;22.70
490;DHT22;231;48.120;11.576;2022-09-09T10:08:03;20.30;22.80
490;DHT22;231;48.120;11.576;2022-09-09T10:10:48;20.30;23.20
490;DHT22;231;48.120;11.576;2022-09-09T10:13:24;20.20;22.70
490;DHT22;231;48.120;11.576;2022-09-09T10:16:06;20.10;22.60
490;DHT22;231;48.120;11.576;2022-09-09T10:18:49;20.10;22.90
490;DHT22;231;48.120;11.576;2022-09-09T10:21:48;20.10;22.50
490;DHT22;231;48.120;11.576;2022-09-09T10:27:23;19.90;22.90
490;DHT22;231;48.120;11.576;2022-09-09T10:30:04;19.90;23.20
490;DHT22;231;48.120;11.576;2022-09-09T10:32:53;19.80;23.70
490;DHT22;231;48.120;11.576;2022-09-09T10:35:29;19.50;24.20
490;DHT22;231;48.120;11.576;2022-09-09T10:38:14;19.50;25.20
490;DHT22;231;48.120;11.576;2022-09-09T10:40:46;19.50;26.00
490;DHT22;231;48.120;11.576;2022-09-09T10:43:27;19.40;26.30
490;DHT22;231;48.120;11.576;2022-09-09T10:46:06;19.50;26.40
490;DHT22;231;48.120;11.576;2022-09-09T10:48:50;19.50;24.70
490;DHT22;231;48.120;11.576;2022-09-09T10:51:37;19.50;25.10
490;DHT22;231;48.120;11.576;2022-09-09T10:54:36;19.40;24.60
490;DHT22;231;48.120;11.576;2022-09-09T10:57:12;19.50;24.20
490;DHT22;231;48.120;11.576;2022-09-09T10:59:44;19.20;24.20
490;DHT22;231;48.120;11.576;2022-09-09T11:02:18;19.20;24.80
490;DHT22;231;48.120;11.576;2022-09-09T11:04:51;19.20;24.60
490;DHT22;231;48.120;11.576;2022-09-09T11:07:26;19.40;24.30
490;DHT22;231;48.120;11.576;2022-09-09T11:10:01;19.50;23.40
490;DHT22;231;48.120;11.576;2022-09-09T11:12:30;19.60;23.30
490;DHT22;231;48.120;11.576;2022-09-09T11:15:12;19.80;22.40
490;DHT22;231;48.120;11.576;2022-09-09T11:17:46;20.00;22.50
490;DHT22;231;48.120;11.576;2022-09-09T11:20:15;20.10;21.70
490;DHT22;231;48.120;11.576;2022-09-09T11:22:47;20.30;20.50
490;DHT22;231;48.120;11.576;2022-09-09T11:25:17;20.50;20.20
490;DHT22;231;48.120;11.576;2022-09-09T11:28:05;20.70;19.90
490;DHT22;231;48.120;11.576;2022-09-09T11:30:45;20.80;19.40
490;DHT22;231;48.120;11.576;2022-09-09T11:33:31;20.90;19.40
490;DHT22;231;48.120;11.576;2022-09-09T11:38:54;21.10;18.60
490;DHT22;231;48.120;11.576;2022-09-09T11:41:34;20.90;17.20
490;DHT22;231;48.120;11.576;2022-09-09T11:44:16;20.70;17.30
490;DHT22;231;48.120;11.576;2022-09-09T11:46:53;20.70;18.10
490;DHT22;231;48.120;11.576;2022-09-09T11:53:16;20.50;17.20
490;DHT22;231;48.120;11.576;2022-09-09T11:55:46;20.60;18.20
490;DHT22;231;48.120;11.576;2022-09-09T12:01:41;20.70;17.80
490;DHT22;231;48.120;11.576;2022-09-09T12:04:21;20.50;17.30
490;DHT22;231;48.120;11.576;2022-09-09T12:06:56;20.40;17.50
490;DHT22;231;48.120;11.576;2022-09-09T12:09:40;20.40;17.40
490;DHT22;231;48.120;11.576;2022-09-09T12:12:31;20.50;16.90
490;DHT22;231;48.120;11.576;2022-09-09T12:17:48;20.80;16.40
490;DHT22;231;48.120;11.576;2022-09-09T12:20:18;21.00;16.10
490;DHT22;231;48.120;11.576;2022-09-09T12:23:08;21.20;15.30
490;DHT22;231;48.120;11.576;2022-09-09T12:25:53;20.80;14.80
490;DHT22;231;48.120;11.576;2022-09-09T12:28:33;20.60;15.80
490;DHT22;231;48.120;11.576;2022-09-09T12:31:07;20.80;16.00
490;DHT22;231;48.120;11.576;2022-09-09T12:33:37;20.90;15.60
490;DHT22;231;48.120;11.576;2022-09-09T12:36:12;21.10;15.00
490;DHT22;231;48.120;11.576;2022-09-09T12:38:45;21.10;15.20
490;DHT22;231;48.120;11.576;2022-09-09T12:41:23;21.40;14.90
490;DHT22;231;48.120;11.576;2022-09-09T12:44:09;21.30;14.30
490;DHT22;231;48.120;11.576;2022-09-09T12:46:41;21.30;14.50
490;DHT22;231;48.120;11.576;2022-09-09T12:49:28;21.20;14.70
490;DHT22;231;48.120;11.576;2022-09-09T12:51:57;21.20;15.10
490;DHT22;231;48.120;11.576;2022-09-09T12:54:26;21.40;15.30
490;DHT22;231;48.120;11.576;2022-09-09T12:56:57;21.60;14.70
490;DHT22;231;48.120;11.576;2022-09-09T12:59:34;21.60;14.00
490;DHT22;231;48.120;11.576;2022-09-09T13:02:49;21.70;14.60
490;DHT22;231;48.120;11.576;2022-09-09T13:05:19;21.80;14.50
490;DHT22;231;48.120;11.576;2022-09-09T13:07:50;21.60;14.60
490;DHT22;231;48.120;11.576;2022-09-09T13:10:33;21.30;14.80
490;DHT22;231;48.120;11.576;2022-09-09T13:13:17;21.00;15.70
490;DHT22;231;48.120;11.576;2022-09-09T13:15:56;20.90;16.50
490;DHT22;231;48.120;11.576;2022-09-09T13:22:30;20.70;16.70
490;DHT22;231;48.120;11.576;2022-09-09T13:25:03;20.60;16.80
490;DHT22;231;48.120;11.576;2022-09-09T13:27:32;20.60;17.40
490;DHT22;231;48.120;11.576;2022-09-09T13:30:01;20.80;17.30
490;DHT22;231;48.120;11.576;2022-09-09T13:32:29;20.80;16.80
490;DHT22;231;48.120;11.576;2022-09-09T13:34:58;20.80;16.10
490;DHT22;231;48.120;11.576;2022-09-09T13:37:31;20.80;15.90
490;DHT22;231;48.120;11.576;2022-09-09T13:40:01;21.00;15.90
490;DHT22;231;48.120;11.576;2022-09-09T13:42:32;21.00;16.30
490;DHT22;231;48.120;11.576;2022-09-09T13:45:02;20.80;15.50
490;DHT22;231;48.120;11.576;2022-09-09T13:47:32;20.70;16.10
490;DHT22;231;48.120;11.576;2022-09-09T13:50:15;20.80;16.30
490;DHT22;231;48.120;11.576;2022-09-09T13:52:44;20.60;16.60
490;DHT22;231;48.120;11.576;2022-09-09T13:55:13;20.40;17.30
490;DHT22;231;48.120;11.576;2022-09-09T13:57:50;20.30;18.10
490;DHT22;231;48.120;11.576;2022-09-09T14:00:19;20.40;18.20
490;DHT22;231;48.120;11.576;2022-09-09T14:02:47;20.50;18.00
490;DHT22;231;48.120;11.576;2022-09-09T14:05:15;20.40;17.60
490;DHT22;231;48.120;11.576;2022-09-09T14:07:42;20.30;17.60
490;DHT22;231;48.120;11.576;2022-09-09T14:10:12;20.40;18.20
490;DHT22;231;48.120;11.576;2022-09-09T14:12:39;20.50;18.00
490;DHT22;231;48.120;11.576;2022-09-09T14:15:09;20.40;18.20
490;DHT22;231;48.120;11.576;2022-09-09T14:17:37;20.40;18.20
490;DHT22;231;48.120;11.576;2022-09-09T14:20:06;20.50;18.30
490;DHT22;231;48.120;11.576;2022-09-09T14:22:35;20.50;18.60
490;DHT22;231;48.120;11.576;2022-09-09T14:25:03;20.50;18.30
490;DHT22;231;48.120;11.576;2022-09-09T14:27:31;20.50;17.90
490;DHT22;231;48.120;11.576;2022-09-09T14:29:58;20.20;18.10
490;DHT22;231;48.120;11.576;2022-09-09T14:32:27;20.20;18.80
490;DHT22;231;48.120;11.576;2022-09-09T14:34:56;20.10;19.00
490;DHT22;231;48.120;11.576;2022-09-09T14:37:23;19.90;19.30
490;DHT22;231;48.120;11.576;2022-09-09T14:39:52;19.90;19.50
490;DHT22;231;48.120;11.576;2022-09-09T14:42:19;19.90;20.20
490;DHT22;231;48.120;11.576;2022-09-09T14:44:47;20.00;19.90
490;DHT22;231;48.120;11.576;2022-09-09T14:47:18;20.10;19.70
490;DHT22;231;48.120;11.576;2022-09-09T14:49:45;20.20;19.60
490;DHT22;231;48.120;11.576;2022-09-09T14:52:16;20.20;18.80
490;DHT22;231;48.120;11.576;2022-09-09T14:54:43;20.30;18.70
490;DHT22;231;48.120;11.576;2022-09-09T14:57:10;20.40;18.20
490;DHT22;231;48.120;11.576;2022-09-09T14:59:37;20.40;18.20
490;DHT22;231;48.120;11.576;2022-09-09T15:02:04;20.30;18.10
490;DHT22;231;48.120;11.576;2022-09-09T15:04:31;20.40;18.20
490;DHT22;231;48.120;11.576;2022-09-09T15:06:58;20.30;17.60
490;DHT22;231;48.120;11.576;2022-09-09T15:09:27;20.40;18.00
490;DHT22;231;48.120;11.576;2022-09-09T15:11:54;20.30;17.00
490;DHT22;231;48.120;11.576;2022-09-09T15:14:21;20.30;17.50
490;DHT22;231;48.120;11.576;2022-09-09T15:16:48;20.40;17.20
490;DHT22;231;48.120;11.576;2022-09-09T15:19:15;20.20;16.60
490;DHT22;231;48.120;11.576;2022-09-09T15:21:42;20.20;16.60
490;DHT22;231;48.120;11.576;2022-09-09T15:24:09;20.20;17.10
490;DHT22;231;48.120;11.576;2022-09-09T15:26:38;20.10;17.20
490;DHT22;231;48.120;11.576;2022-09-09T15:29:06;20.10;18.40
490;DHT22;231;48.120;11.576;2022-09-09T15:31:35;20.10;17.90
490;DHT22;231;48.120;11.576;2022-09-09T15:34:06;19.90;17.00
490;DHT22;231;48.120;11.576;2022-09-09T15:36:35;19.90;17.50
490;DHT22;231;48.120;11.576;2022-09-09T15:39:04;20.00;17.80
490;DHT22;231;48.120;11.576;2022-09-09T15:41:37;20.10;18.30
490;DHT22;231;48.120;11.576;2022-09-09T15:44:08;19.90;16.90
490;DHT22;231;48.120;11.576;2022-09-09T15:46:37;19.80;17.00
490;DHT22;231;48.120;11.576;2022-09-09T15:49:09;19.90;17.70
490;DHT22;231;48.120;11.576;2022-09-09T15:51:37;20.00;17.40
490;DHT22;231;48.120;11.576;2022-09-09T15:54:05;20.10;17.10
490;DHT22;231;48.120;11.576;2022-09-09T15:56:32;20.20;17.40
490;DHT22;231;48.120;11.576;2022-09-09T15:59:03;20.30;17.90
490;DHT22;231;48.120;11.576;2022-09-09T16:01:37;20.50;18.40
490;DHT22;231;48.120;11.576;2022-09-09T16:04:05;20.30;18.40
490;DHT22;231;48.120;11.576;2022-09-09T16:06:32;20.10;18.00
490;DHT22;231;48.120;11.576;2022-09-09T16:09:01;20.20;19.20
490;DHT22;231;48.120;11.576;2022-09-09T16:11:30;20.20;19.00
490;DHT22;231;48.120;11.576;2022-09-09T16:14:00;20.10;18.30
490;DHT22;231;48.120;11.576;2022-09-09T16:16:29;20.10;19.30
490;DHT22;231;48.120;11.576;2022-09-09T16:18:58;20.00;19.10
490;DHT22;231;48.120;11.576;2022-09-09T16:21:27;20.00;18.70
490;DHT22;231;48.120;11.576;2022-09-09T16:23:56;20.10;18.70
490;DHT22;231;48.120;11.576;2022-09-09T16:26:25;20.10;18.00
490;DHT22;231;48.120;11.576;2022-09-09T16:28:53;20.00;17.00
490;DHT22;231;48.120;11.576;2022-09-09T16:31:23;19.90;16.30
490;DHT22;231;48.120;11.576;2022-09-09T16:33:52;19.70;16.10
490;DHT22;231;48.120;11.576;2022-09-09T16:36:21;19.80;16.60
490;DHT22;231;48.120;11.576;2022-09-09T16:38:52;19.90;16.30
490;DHT22;231;48.120;11.576;2022-09-09T16:41:20;19.70;15.20
490;DHT22;231;48.120;11.576;2022-09-09T16:43:47;19.40;15.00
490;DHT22;231;48.120;11.576;2022-09-09T16:46:19;19.30;15.70
490;DHT22;231;48.120;11.576;2022-09-09T16:48:48;19.30;15.70
490;DHT22;231;48.120;11.576;2022-09-09T16:51:17;19.30;16.40
490;DHT22;231;48.120;11.576;2022-09-09T16:53:49;19.40;16.20
490;DHT22;231;48.120;11.576;2022-09-09T16:56:17;19.40;16.20
490;DHT22;231;48.120;11.576;2022-09-09T16:58:49;19.30;16.40
490;DHT22;231;48.120;11.576;2022-09-09T17:01:16;19.30;16.00
490;DHT22;231;48.120;11.576;2022-09-09T17:03:44;19.20;16.00
490;DHT22;231;48.120;11.576;2022-09-09T17:06:14;19.20;16.50
490;DHT22;231;48.120;11.576;2022-09-09T17:08:45;19.30;16.40
490;DHT22;231;48.120;11.576;2022-09-09T17:11:14;19.20;16.30
490;DHT22;231;48.120;11.576;2022-09-09T17:13:42;19.20;16.60
490;DHT22;231;48.120;11.576;2022-09-09T17:16:10;19.10;17.00
490;DHT22;231;48.120;11.576;2022-09-09T17:18:37;19.10;17.20
490;DHT22;231;48.120;11.576;2022-09-09T17:21:06;19.10;17.20
490;DHT22;231;48.120;11.576;2022-09-09T17:23:37;19.10;17.30
490;DHT22;231;48.120;11.576;2022-09-09T17:26:06;19.10;17.70
490;DHT22;231;48.120;11.576;2022-09-09T17:28:34;19.00;18.00
490;DHT22;231;48.120;11.576;2022-09-09T17:31:02;19.00;18.30
490;DHT22;231;48.120;11.576;2022-09-09T17:33:32;18.90;18.80
490;DHT22;231;48.120;11.576;2022-09-09T17:36:16;18.80;19.50
490;DHT22;231;48.120;11.576;2022-09-09T17:38:47;18.90;19.70
490;DHT22;231;48.120;11.576;2022-09-09T17:41:16;18.90;19.90
490;DHT22;231;48.120;11.576;2022-09-09T17:43:44;18.80;20.40
490;DHT22;231;48.120;11.576;2022-09-09T17:46:13;18.80;20.50
490;DHT22;231;48.120;11.576;2022-09-09T17:48:40;18.70;21.00
490;DHT22;231;48.120;11.576;2022-09-09T17:51:11;18.70;21.60
490;DHT22;231;48.120;11.576;2022-09-09T17:53:39;18.70;21.70
490;DHT22;231;48.120;11.576;2022-09-09T17:56:10;18.70;22.00
490;DHT22;231;48.120;11.576;2022-09-09T17:58:37;18.60;21.90
490;DHT22;231;48.120;11.576;2022-09-09T18:01:06;18.70;22.60
490;DHT22;231;48.120;11.576;2022-09-09T18:03:35;18.70;22.70
490;DHT22;231;48.120;11.576;2022-09-09T18:06:04;18.80;22.80
490;DHT22;231;48.120;11.576;2022-09-09T18:08:31;18.80;22.70
490;DHT22;231;48.120;11.576;2022-09-09T18:10:58;18.70;22.70
490;DHT22;231;48.120;11.576;2022-09-09T18:13:27;18.60;23.00
490;DHT22;231;48.120;11.576;2022-09-09T18:15:55;18.60;23.50
490;DHT22;231;48.120;11.576;2022-09-09T18:18:22;18.60;23.60
490;DHT22;231;48.120;11.576;2022-09-09T18:20:57;18.40;24.10
490;DHT22;231;48.120;11.576;2022-09-09T18:23:24;18.40;24.40
490;DHT22;231;48.120;11.576;2022-09-09T18:25:51;18.30;24.90